Time;durP1;ratioP1;P1;durP2;ratioP2;P2;SDS_P1;SDS_P2;PMS_P1;PMS_P2;Temp;Humidity;BMP_temperature;BMP_pressure;BME280_temperature;BME280_humidity;BME280_pressure;Samples;Min_cycle;Max_cycle;Signal;HPM_P1;HPM_P2
2024/03/21 00:00:17;;;;;;;7.88;4.63;;;;;;;;;;686701;28;1275;-76
2024/03/21 00:00:37;;;;;;;8.95;4.93;;;;;;;;;;684038;28;1262;-77
2024/03/21 00:00:57;;;;;;;8.02;4.88;;;;;;;;;;685083;28;1256;-77
2024/03/21 00:01:17;;;;;;;7.03;4.60;;;;;;;;;;681481;28;4272;-77
2024/03/21 00:01:39;;;;;;;8.43;4.57;;;;;;;;;;682016;29;1356;-79
2024/03/21 00:02:00;;;;;;;7.93;4.50;;;;;;;;;;680391;29;1379;-78
2024/03/21 00:02:20;;;;;;;7.83;4.77;;;;;;;;;;682328;29;823;-77
2024/03/21 00:02:46;;;;;;;8.57;4.93;;;;;;;;;;686368;28;1452;-79
2024/03/21 00:03:06;;;;;;;8.90;4.57;;;;;;;;;;685084;28;1438;-77
2024/03/21 00:03:27;;;;;;;7.37;4.67;;;;;;;;;;685718;28;936;-76
2024/03/21 00:03:47;;;;;;;10.68;4.90;;;;;;;;;;679888;29;1726;-76
2024/03/21 00:04:07;;;;;;;9.30;4.70;;;;;;;;;;683753;28;4330;-78
2024/03/21 00:04:28;;;;;;;7.83;4.53;;;;;;;;;;687328;28;1398;-77
2024/03/21 00:04:48;;;;;;;6.88;4.97;;;;;;;;;;682973;28;1500;-77
2024/03/21 00:05:11;;;;;;;8.40;5.40;;;;;;;;;;681473;29;1135;-79
2024/03/21 00:05:31;;;;;;;8.13;4.45;;;;;;;;;;679885;29;1197;-79
2024/03/21 00:05:52;;;;;;;8.05;4.45;;;;;;;;;;682282;28;1267;-77
2024/03/21 00:06:12;;;;;;;7.23;4.60;;;;;;;;;;685372;28;1374;-76
2024/03/21 00:06:32;;;;;;;7.20;4.40;;;;;;;;;;682673;28;1308;-77
2024/03/21 00:06:53;;;;;;;6.93;4.43;;;;;;;;;;680747;28;1161;-76
2024/03/21 00:07:13;;;;;;;7.20;4.50;;;;;;;;;;682604;28;4314;-76
2024/03/21 00:07:33;;;;;;;7.55;4.63;;;;;;;;;;684296;28;1230;-76
2024/03/21 00:07:54;;;;;;;7.10;4.50;;;;;;;;;;684745;28;1246;-77
2024/03/21 00:08:14;;;;;;;7.30;4.57;;;;;;;;;;685404;28;1221;-76
2024/03/21 00:08:37;;;;;;;6.82;4.70;;;;;;;;;;685134;28;1025;-76
2024/03/21 00:08:57;;;;;;;7.32;4.75;;;;;;;;;;687240;28;1369;-76
2024/03/21 00:09:18;;;;;;;8.23;5.03;;;;;;;;;;682778;28;1224;-76
2024/03/21 00:09:41;;;;;;;7.00;4.25;;;;;;;;;;683163;28;983;-75
2024/03/21 00:10:01;;;;;;;8.90;4.80;;;;;;;;;;686517;28;932;-76
2024/03/21 00:10:21;;;;;;;7.75;4.47;;;;;;;;;;682345;28;4275;-76
2024/03/21 00:10:42;;;;;;;7.60;4.57;;;;;;;;;;686413;28;1305;-78
2024/03/21 00:11:02;;;;;;;6.85;4.30;;;;;;;;;;683536;28;1566;-77
2024/03/21 00:11:23;;;;;;;8.03;4.73;;;;;;;;;;687055;28;1145;-78
2024/03/21 00:11:43;;;;;;;7.18;4.63;;;;;;;;;;682692;28;1550;-77
2024/03/21 00:12:05;;;;;;;8.10;4.40;;;;;;;;;;683255;28;1259;-79
2024/03/21 00:12:25;;;;;;;6.43;4.30;;;;;;;;;;679774;29;1914;-76
2024/03/21 00:12:46;;;;;;;5.60;4.43;;;;;;;;;;681410;28;1217;-76
2024/03/21 00:13:06;;;;;;;6.90;4.60;;;;;;;;;;682332;28;4313;-76
2024/03/21 00:13:26;;;;;;;6.73;4.70;;;;;;;;;;683840;28;1209;-76
2024/03/21 00:13:47;;;;;;;10.10;5.43;;;;;;;;;;676568;29;1572;-77
2024/03/21 00:14:07;;;;;;;7.37;4.60;;;;;;;;;;679891;29;1607;-78
2024/03/21 00:14:28;;;;;;;7.23;4.87;;;;;;;;;;680394;29;973;-77
2024/03/21 00:14:48;;;;;;;6.88;4.90;;;;;;;;;;680094;29;1338;-77
2024/03/21 00:15:09;;;;;;;6.90;4.50;;;;;;;;;;684816;28;940;-77
2024/03/21 00:15:30;;;;;;;6.75;4.50;;;;;;;;;;684585;28;1160;-76
2024/03/21 00:15:50;;;;;;;7.03;4.60;;;;;;;;;;681757;29;1474;-77
2024/03/21 00:16:12;;;;;;;7.40;4.55;;;;;;;;;;683465;28;4324;-77
2024/03/21 00:16:32;;;;;;;9.25;4.65;;;;;;;;;;683642;28;906;-76
2024/03/21 00:16:52;;;;;;;8.40;4.53;;;;;;;;;;685380;28;1240;-78
2024/03/21 00:17:13;;;;;;;9.90;5.07;;;;;;;;;;688302;28;1315;-79
2024/03/21 00:17:34;;;;;;;7.90;5.30;;;;;;;;;;688009;28;1177;-78
2024/03/21 00:17:54;;;;;;;6.72;4.85;;;;;;;;;;684129;28;1378;-78
2024/03/21 00:18:14;;;;;;;7.10;4.63;;;;;;;;;;682669;29;1556;-75
2024/03/21 00:18:35;;;;;;;7.00;4.53;;;;;;;;;;680974;29;862;-77
2024/03/21 00:18:55;;;;;;;8.70;4.50;;;;;;;;;;680095;29;1158;-79
2024/03/21 00:19:15;;;;;;;8.00;4.40;;;;;;;;;;686369;28;4285;-76
2024/03/21 00:19:36;;;;;;;6.80;4.45;;;;;;;;;;683662;28;1140;-78
2024/03/21 00:19:56;;;;;;;7.93;4.67;;;;;;;;;;682715;28;1277;-78
2024/03/21 00:20:17;;;;;;;9.03;4.83;;;;;;;;;;680385;28;1122;-77
2024/03/21 00:20:38;;;;;;;8.68;4.82;;;;;;;;;;684798;28;1486;-79
2024/03/21 00:20:58;;;;;;;9.53;4.93;;;;;;;;;;683162;28;1272;-78
2024/03/21 00:21:18;;;;;;;8.17;4.57;;;;;;;;;;682697;29;1216;-78
2024/03/21 00:21:39;;;;;;;7.90;4.40;;;;;;;;;;685237;28;1193;-76
2024/03/21 00:21:59;;;;;;;7.67;4.70;;;;;;;;;;682280;29;1138;-77
2024/03/21 00:22:19;;;;;;;7.00;4.63;;;;;;;;;;684602;28;4257;-77
2024/03/21 00:22:41;;;;;;;7.87;4.80;;;;;;;;;;682860;29;1178;-78
2024/03/21 00:23:01;;;;;;;7.03;4.70;;;;;;;;;;684974;28;1210;-78
2024/03/21 00:23:22;;;;;;;6.90;4.33;;;;;;;;;;685148;28;1385;-77
2024/03/21 00:23:42;;;;;;;7.57;4.63;;;;;;;;;;684528;28;963;-76
2024/03/21 00:24:03;;;;;;;8.50;4.75;;;;;;;;;;685377;28;1368;-76
2024/03/21 00:24:23;;;;;;;7.10;4.65;;;;;;;;;;685611;28;1197;-78
2024/03/21 00:24:43;;;;;;;6.60;4.93;;;;;;;;;;681115;29;1213;-76
2024/03/21 00:25:04;;;;;;;6.73;4.83;;;;;;;;;;671969;28;4357;-79
2024/03/21 00:25:24;;;;;;;8.15;5.20;;;;;;;;;;683939;28;1383;-77
2024/03/21 00:25:45;;;;;;;8.50;5.00;;;;;;;;;;682210;28;1262;-77
2024/03/21 00:26:05;;;;;;;8.65;4.75;;;;;;;;;;686762;28;1146;-77
2024/03/21 00:26:25;;;;;;;8.77;5.13;;;;;;;;;;686182;28;1243;-76
2024/03/21 00:26:46;;;;;;;8.07;4.60;;;;;;;;;;683074;28;1218;-77
2024/03/21 00:27:06;;;;;;;7.10;4.57;;;;;;;;;;680138;29;1206;-77
2024/03/21 00:27:26;;;;;;;7.13;5.07;;;;;;;;;;685987;28;1248;-76
2024/03/21 00:27:47;;;;;;;7.85;4.72;;;;;;;;;;686420;28;1142;-76
2024/03/21 00:28:07;;;;;;;7.60;4.63;;;;;;;;;;683990;28;4361;-79
2024/03/21 00:28:28;;;;;;;8.77;4.90;;;;;;;;;;679952;29;1280;-77
2024/03/21 00:28:49;;;;;;;8.48;4.97;;;;;;;;;;681517;28;1343;-78
2024/03/21 00:29:09;;;;;;;6.75;4.90;;;;;;;;;;681607;28;1249;-76
2024/03/21 00:29:29;;;;;;;10.00;5.03;;;;;;;;;;680279;29;999;-76
2024/03/21 00:29:50;;;;;;;10.77;5.15;;;;;;;;;;679020;29;1282;-77
2024/03/21 00:30:11;;;;;;;8.20;4.63;;;;;;;;;;676699;29;1353;-76
2024/03/21 00:30:31;;;;;;;7.90;4.93;;;;;;;;;;680323;29;921;-77
2024/03/21 00:30:54;;;;;;;8.60;4.82;;;;;;;;;;679421;28;1216;-76
2024/03/21 00:31:16;;;;;;;10.13;5.05;;;;;;;;;;677020;29;4272;-78
2024/03/21 00:31:36;;;;;;;7.80;5.03;;;;;;;;;;683235;28;822;-77
2024/03/21 00:31:57;;;;;;;6.60;4.85;;;;;;;;;;684760;28;1274;-77
2024/03/21 00:32:17;;;;;;;6.22;4.53;;;;;;;;;;685830;28;1349;-76
2024/03/21 00:32:38;;;;;;;6.50;4.50;;;;;;;;;;687900;28;1903;-76
2024/03/21 00:32:58;;;;;;;7.60;4.83;;;;;;;;;;689305;28;1045;-77
2024/03/21 00:33:18;;;;;;;9.57;4.82;;;;;;;;;;684502;28;1421;-78
2024/03/21 00:33:38;;;;;;;7.37;5.03;;;;;;;;;;682004;29;1146;-79
2024/03/21 00:33:59;;;;;;;9.77;4.90;;;;;;;;;;682155;28;1233;-77
2024/03/21 00:34:19;;;;;;;10.20;5.03;;;;;;;;;;682006;28;4297;-77
2024/03/21 00:34:39;;;;;;;7.53;4.80;;;;;;;;;;680888;29;1359;-77
2024/03/21 00:35:00;;;;;;;7.30;5.20;;;;;;;;;;680199;29;1115;-78
2024/03/21 00:35:20;;;;;;;6.82;4.70;;;;;;;;;;682885;29;908;-76
2024/03/21 00:35:41;;;;;;;8.05;5.00;;;;;;;;;;683813;28;1143;-76
2024/03/21 00:36:01;;;;;;;8.47;4.87;;;;;;;;;;681507;28;1291;-82
2024/03/21 00:36:24;;;;;;;8.37;4.60;;;;;;;;;;679811;29;1183;-77
2024/03/21 00:36:44;;;;;;;7.78;5.18;;;;;;;;;;681421;28;1241;-78
2024/03/21 00:37:05;;;;;;;7.80;5.37;;;;;;;;;;683046;28;4396;-76
2024/03/21 00:37:26;;;;;;;7.37;4.90;;;;;;;;;;682527;28;1158;-78
2024/03/21 00:37:46;;;;;;;9.15;5.15;;;;;;;;;;678982;29;1250;-78
2024/03/21 00:38:07;;;;;;;6.78;4.60;;;;;;;;;;682433;29;1315;-77
2024/03/21 00:38:27;;;;;;;7.33;4.73;;;;;;;;;;682778;29;777;-76
2024/03/21 00:38:47;;;;;;;6.25;4.65;;;;;;;;;;681769;29;1234;-78
2024/03/21 00:39:09;;;;;;;8.57;4.90;;;;;;;;;;682622;29;1134;-76
2024/03/21 00:39:30;;;;;;;9.00;4.78;;;;;;;;;;686412;28;1260;-76
2024/03/21 00:39:53;;;;;;;8.45;4.68;;;;;;;;;;681650;28;1281;-77
2024/03/21 00:40:14;;;;;;;7.65;4.90;;;;;;;;;;681971;28;5172;-78
2024/03/21 00:40:34;;;;;;;7.68;4.60;;;;;;;;;;685999;28;1132;-79
2024/03/21 00:40:55;;;;;;;7.53;4.47;;;;;;;;;;687843;28;1096;-77
2024/03/21 00:41:15;;;;;;;7.93;4.55;;;;;;;;;;686365;28;1410;-76
2024/03/21 00:41:35;;;;;;;8.73;5.00;;;;;;;;;;680782;28;1387;-76
2024/03/21 00:41:56;;;;;;;8.77;5.10;;;;;;;;;;680817;28;1301;-77
2024/03/21 00:42:16;;;;;;;8.38;5.18;;;;;;;;;;684696;28;1181;-76
2024/03/21 00:42:42;;;;;;;7.13;4.80;;;;;;;;;;685953;28;1106;-76
2024/03/21 00:43:02;;;;;;;8.13;5.05;;;;;;;;;;682938;28;4324;-78
2024/03/21 00:43:23;;;;;;;7.78;4.93;;;;;;;;;;682579;28;1220;-76
2024/03/21 00:43:43;;;;;;;7.37;5.00;;;;;;;;;;684362;28;1212;-77
2024/03/21 00:44:07;;;;;;;8.40;4.83;;;;;;;;;;684020;28;1141;-77
2024/03/21 00:44:27;;;;;;;8.13;4.97;;;;;;;;;;685985;28;1233;-76
2024/03/21 00:44:48;;;;;;;7.63;5.00;;;;;;;;;;685857;28;1362;-75
2024/03/21 00:45:08;;;;;;;8.27;4.90;;;;;;;;;;686995;28;940;-77
2024/03/21 00:45:32;;;;;;;8.85;5.00;;;;;;;;;;688232;28;1233;-76
2024/03/21 00:45:52;;;;;;;7.68;4.93;;;;;;;;;;682020;29;1249;-76
2024/03/21 00:46:13;;;;;;;8.03;5.13;;;;;;;;;;681864;28;4368;-80
2024/03/21 00:46:33;;;;;;;8.02;5.18;;;;;;;;;;682767;29;1452;-77
2024/03/21 00:46:53;;;;;;;7.90;5.23;;;;;;;;;;679080;29;1530;-76
2024/03/21 00:47:14;;;;;;;7.30;5.17;;;;;;;;;;682584;29;1380;-76
2024/03/21 00:47:34;;;;;;;8.53;4.90;;;;;;;;;;688435;28;1327;-76
2024/03/21 00:47:56;;;;;;;7.47;4.70;;;;;;;;;;686567;28;6593;-78
2024/03/21 00:48:16;;;;;;;8.23;5.05;;;;;;;;;;683205;28;1628;-78
2024/03/21 00:48:37;;;;;;;8.43;5.07;;;;;;;;;;687156;28;1132;-79
2024/03/21 00:48:57;;;;;;;7.55;5.00;;;;;;;;;;685229;28;1951;-77
2024/03/21 00:49:17;;;;;;;9.13;5.20;;;;;;;;;;684823;28;4444;-77
2024/03/21 00:49:37;;;;;;;7.60;4.83;;;;;;;;;;685228;28;1569;-76
2024/03/21 00:49:58;;;;;;;7.32;4.75;;;;;;;;;;687193;28;1396;-77
2024/03/21 00:50:18;;;;;;;7.97;5.17;;;;;;;;;;686829;28;1285;-76
2024/03/21 00:50:38;;;;;;;8.57;4.90;;;;;;;;;;685191;28;1307;-78
2024/03/21 00:50:59;;;;;;;7.60;5.17;;;;;;;;;;683672;28;1520;-77
2024/03/21 00:51:19;;;;;;;7.50;5.13;;;;;;;;;;687703;28;1238;-77
2024/03/21 00:51:39;;;;;;;6.33;4.77;;;;;;;;;;685451;28;889;-77
2024/03/21 00:52:00;;;;;;;8.20;5.20;;;;;;;;;;687329;28;1539;-78
2024/03/21 00:52:20;;;;;;;7.43;4.97;;;;;;;;;;682580;28;4268;-77
2024/03/21 00:52:40;;;;;;;7.97;4.95;;;;;;;;;;682992;29;1960;-76
2024/03/21 00:53:01;;;;;;;7.70;4.90;;;;;;;;;;682747;28;1285;-77
2024/03/21 00:53:21;;;;;;;9.30;5.40;;;;;;;;;;682123;29;900;-78
2024/03/21 00:53:41;;;;;;;9.70;5.38;;;;;;;;;;681099;29;1329;-77
2024/03/21 00:54:02;;;;;;;6.97;4.73;;;;;;;;;;684756;28;1637;-76
2024/03/21 00:54:22;;;;;;;7.13;4.70;;;;;;;;;;685047;28;1219;-76
2024/03/21 00:54:43;;;;;;;7.40;4.90;;;;;;;;;;684665;28;1310;-76
2024/03/21 00:55:03;;;;;;;6.63;4.95;;;;;;;;;;682835;28;4329;-77
2024/03/21 00:55:24;;;;;;;6.87;4.93;;;;;;;;;;684815;28;927;-77
2024/03/21 00:55:44;;;;;;;7.60;4.80;;;;;;;;;;684078;28;1257;-80
2024/03/21 00:56:05;;;;;;;8.00;5.10;;;;;;;;;;685147;28;1262;-76
2024/03/21 00:56:25;;;;;;;8.23;4.97;;;;;;;;;;681679;29;1300;-76
2024/03/21 00:56:46;;;;;;;6.70;4.63;;;;;;;;;;680031;29;2210;-77
2024/03/21 00:57:07;;;;;;;7.63;4.93;;;;;;;;;;681929;29;1339;-78
2024/03/21 00:57:27;;;;;;;7.70;5.00;;;;;;;;;;685257;28;1441;-76
2024/03/21 00:57:48;;;;;;;7.03;4.88;;;;;;;;;;685987;28;1528;-77
2024/03/21 00:58:08;;;;;;;7.87;4.87;;;;;;;;;;685536;28;4319;-77
2024/03/21 00:58:29;;;;;;;7.55;5.07;;;;;;;;;;687417;28;831;-77
2024/03/21 00:58:49;;;;;;;7.93;4.70;;;;;;;;;;684217;28;1553;-76
2024/03/21 00:59:10;;;;;;;8.55;4.88;;;;;;;;;;682894;29;1374;-78
2024/03/21 00:59:31;;;;;;;7.40;4.90;;;;;;;;;;683409;28;1362;-79
2024/03/21 00:59:52;;;;;;;7.22;4.60;;;;;;;;;;685021;28;1273;-76
2024/03/21 01:00:13;;;;;;;8.10;4.70;;;;;;;;;;685781;28;1306;-76
2024/03/21 01:00:35;;;;;;;7.10;4.43;;;;;;;;;;682814;28;1178;-80
2024/03/21 01:00:58;;;;;;;7.55;4.82;;;;;;;;;;684975;28;1233;-77
2024/03/21 01:01:21;;;;;;;7.43;4.85;;;;;;;;;;682461;28;4301;-76
2024/03/21 01:01:42;;;;;;;6.53;4.60;;;;;;;;;;682983;29;992;-77
2024/03/21 01:02:02;;;;;;;6.70;4.63;;;;;;;;;;684502;28;1157;-76
2024/03/21 01:02:23;;;;;;;7.70;4.80;;;;;;;;;;685095;28;1360;-76
2024/03/21 01:02:43;;;;;;;8.68;5.10;;;;;;;;;;688391;28;1473;-78
2024/03/21 01:03:03;;;;;;;7.73;4.90;;;;;;;;;;689102;28;1129;-77
2024/03/21 01:03:23;;;;;;;7.13;4.90;;;;;;;;;;688616;28;1063;-78
2024/03/21 01:03:44;;;;;;;6.75;4.70;;;;;;;;;;682634;28;1283;-82
2024/03/21 01:04:04;;;;;;;7.10;4.70;;;;;;;;;;682376;28;4352;-76
2024/03/21 01:04:25;;;;;;;7.97;4.70;;;;;;;;;;686698;28;1286;-76
2024/03/21 01:04:50;;;;;;;9.63;4.90;;;;;;;;;;686349;28;1080;-79
2024/03/21 01:05:13;;;;;;;8.88;4.75;;;;;;;;;;688694;28;1233;-79
2024/03/21 01:05:34;;;;;;;8.15;4.82;;;;;;;;;;680242;29;1182;-77
2024/03/21 01:05:55;;;;;;;7.25;4.78;;;;;;;;;;681164;29;1282;-76
2024/03/21 01:06:18;;;;;;;8.77;4.65;;;;;;;;;;680936;29;1282;-79
2024/03/21 01:06:39;;;;;;;8.57;4.93;;;;;;;;;;686085;28;1057;-75
2024/03/21 01:07:00;;;;;;;7.37;5.33;;;;;;;;;;687346;28;1160;-76
2024/03/21 01:07:21;;;;;;;6.85;4.93;;;;;;;;;;684536;28;4336;-76
2024/03/21 01:07:42;;;;;;;7.35;4.88;;;;;;;;;;686856;28;1364;-77
2024/03/21 01:08:02;;;;;;;8.17;5.27;;;;;;;;;;685227;28;1300;-76
2024/03/21 01:08:23;;;;;;;8.07;5.00;;;;;;;;;;685499;28;1367;-78
2024/03/21 01:08:43;;;;;;;7.63;4.60;;;;;;;;;;688658;28;1120;-76
2024/03/21 01:09:04;;;;;;;8.57;5.07;;;;;;;;;;687381;28;1161;-79
2024/03/21 01:09:24;;;;;;;7.40;4.95;;;;;;;;;;684650;28;1213;-77
2024/03/21 01:09:45;;;;;;;7.50;4.70;;;;;;;;;;682620;29;974;-78
2024/03/21 01:10:08;;;;;;;7.90;4.80;;;;;;;;;;682662;29;4371;-76
2024/03/21 01:10:29;;;;;;;7.13;4.57;;;;;;;;;;685459;28;1539;-76
2024/03/21 01:10:50;;;;;;;7.40;4.70;;;;;;;;;;686308;28;1228;-79
2024/03/21 01:11:11;;;;;;;8.30;4.90;;;;;;;;;;683681;28;1068;-77
2024/03/21 01:11:31;;;;;;;8.30;4.72;;;;;;;;;;682402;29;1161;-76
2024/03/21 01:11:57;;;;;;;9.83;4.90;;;;;;;;;;683134;28;1220;-77
2024/03/21 01:12:18;;;;;;;8.68;5.20;;;;;;;;;;683806;28;1203;-77
2024/03/21 01:12:38;;;;;;;8.77;5.27;;;;;;;;;;683530;28;1922;-78
2024/03/21 01:12:58;;;;;;;7.80;4.97;;;;;;;;;;682553;29;1113;-77
2024/03/21 01:13:18;;;;;;;7.03;4.90;;;;;;;;;;684970;28;4290;-77
2024/03/21 01:13:39;;;;;;;8.07;5.10;;;;;;;;;;685512;28;1086;-76
2024/03/21 01:13:59;;;;;;;8.27;5.23;;;;;;;;;;685592;28;1252;-79
2024/03/21 01:14:19;;;;;;;7.97;5.00;;;;;;;;;;688671;28;1273;-76
2024/03/21 01:14:42;;;;;;;7.50;4.83;;;;;;;;;;685504;28;1274;-78
2024/03/21 01:15:02;;;;;;;7.45;4.70;;;;;;;;;;681374;29;1514;-79
2024/03/21 01:15:23;;;;;;;7.50;4.57;;;;;;;;;;681606;29;1209;-77
2024/03/21 01:15:44;;;;;;;7.07;4.78;;;;;;;;;;686769;28;1217;-78
2024/03/21 01:16:08;;;;;;;8.05;4.70;;;;;;;;;;688629;28;4327;-77
2024/03/21 01:16:28;;;;;;;7.00;4.90;;;;;;;;;;687380;28;1323;-76
2024/03/21 01:16:49;;;;;;;6.77;4.90;;;;;;;;;;687254;28;965;-77
2024/03/21 01:17:09;;;;;;;7.03;4.70;;;;;;;;;;681672;28;1037;-78
2024/03/21 01:17:29;;;;;;;6.43;4.67;;;;;;;;;;683724;28;789;-77
2024/03/21 01:17:51;;;;;;;6.17;4.60;;;;;;;;;;685643;28;1266;-79
2024/03/21 01:18:11;;;;;;;7.70;4.90;;;;;;;;;;682517;29;1453;-76
2024/03/21 01:18:37;;;;;;;9.43;5.10;;;;;;;;;;685140;28;941;-78
2024/03/21 01:18:58;;;;;;;8.05;4.80;;;;;;;;;;679737;29;1368;-77
2024/03/21 01:19:18;;;;;;;8.10;4.90;;;;;;;;;;675758;28;4329;-77
2024/03/21 01:19:39;;;;;;;7.37;5.00;;;;;;;;;;684531;28;1357;-78
2024/03/21 01:19:59;;;;;;;7.97;5.00;;;;;;;;;;683038;28;1251;-75
2024/03/21 01:20:20;;;;;;;8.43;4.73;;;;;;;;;;686594;28;1265;-77
2024/03/21 01:20:41;;;;;;;9.25;4.60;;;;;;;;;;685834;28;1319;-76
2024/03/21 01:21:02;;;;;;;7.13;4.60;;;;;;;;;;691289;28;1568;-77
2024/03/21 01:21:22;;;;;;;7.05;4.75;;;;;;;;;;690151;28;1330;-78
2024/03/21 01:21:42;;;;;;;8.13;5.20;;;;;;;;;;682295;29;1223;-76
2024/03/21 01:22:03;;;;;;;7.87;5.17;;;;;;;;;;682105;28;4334;-77
2024/03/21 01:22:23;;;;;;;8.10;5.03;;;;;;;;;;684330;28;1221;-76
2024/03/21 01:22:43;;;;;;;8.03;5.07;;;;;;;;;;688146;28;777;-77
2024/03/21 01:23:04;;;;;;;7.70;4.93;;;;;;;;;;685174;28;1185;-76
2024/03/21 01:23:25;;;;;;;7.70;4.85;;;;;;;;;;686664;28;987;-78
2024/03/21 01:23:45;;;;;;;7.57;5.03;;;;;;;;;;688663;28;1590;-76
2024/03/21 01:24:05;;;;;;;8.53;5.10;;;;;;;;;;688669;28;1149;-81
2024/03/21 01:24:26;;;;;;;7.05;4.80;;;;;;;;;;688759;28;1433;-77
2024/03/21 01:24:46;;;;;;;7.27;4.73;;;;;;;;;;682409;28;1264;-79
2024/03/21 01:25:07;;;;;;;7.22;4.80;;;;;;;;;;687581;28;4336;-78
2024/03/21 01:25:28;;;;;;;7.77;5.03;;;;;;;;;;688586;28;1246;-78
2024/03/21 01:25:49;;;;;;;7.57;4.97;;;;;;;;;;691203;28;1251;-77
2024/03/21 01:26:09;;;;;;;7.78;4.70;;;;;;;;;;686153;28;1378;-77
2024/03/21 01:26:29;;;;;;;7.93;4.93;;;;;;;;;;686461;28;885;-76
2024/03/21 01:26:50;;;;;;;6.85;5.03;;;;;;;;;;684617;28;1136;-78
2024/03/21 01:27:10;;;;;;;6.53;5.03;;;;;;;;;;681200;29;1363;-76
2024/03/21 01:27:31;;;;;;;7.10;4.97;;;;;;;;;;683733;28;1214;-78
2024/03/21 01:27:51;;;;;;;7.80;5.27;;;;;;;;;;682530;28;1299;-76
2024/03/21 01:28:11;;;;;;;7.72;5.07;;;;;;;;;;684714;28;4265;-77
2024/03/21 01:28:32;;;;;;;7.43;5.27;;;;;;;;;;687496;28;810;-78
2024/03/21 01:28:53;;;;;;;7.97;5.30;;;;;;;;;;687192;28;1346;-77
2024/03/21 01:29:13;;;;;;;9.38;5.00;;;;;;;;;;686829;28;1370;-77
2024/03/21 01:29:33;;;;;;;9.05;5.13;;;;;;;;;;687135;28;1379;-76
2024/03/21 01:29:53;;;;;;;7.40;4.90;;;;;;;;;;687262;28;1197;-79
2024/03/21 01:30:14;;;;;;;7.10;4.53;;;;;;;;;;690594;28;1390;-76
2024/03/21 01:30:34;;;;;;;6.73;4.60;;;;;;;;;;690877;28;1323;-76
2024/03/21 01:30:55;;;;;;;7.83;5.43;;;;;;;;;;687040;28;1651;-76
2024/03/21 01:31:16;;;;;;;7.50;5.07;;;;;;;;;;683893;28;4339;-76
2024/03/21 01:31:37;;;;;;;6.60;4.95;;;;;;;;;;682957;28;1002;-76
2024/03/21 01:31:57;;;;;;;8.50;5.10;;;;;;;;;;681014;29;1414;-76
2024/03/21 01:32:17;;;;;;;8.40;5.10;;;;;;;;;;680524;29;1244;-77
2024/03/21 01:32:38;;;;;;;6.70;4.65;;;;;;;;;;678951;29;1899;-77
2024/03/21 01:32:58;;;;;;;6.83;4.87;;;;;;;;;;679472;29;1566;-76
2024/03/21 01:33:19;;;;;;;7.70;4.70;;;;;;;;;;680664;29;1154;-78
2024/03/21 01:33:39;;;;;;;7.77;4.63;;;;;;;;;;679425;29;1256;-77
2024/03/21 01:34:01;;;;;;;7.50;4.90;;;;;;;;;;683266;28;1234;-77
2024/03/21 01:34:21;;;;;;;7.45;5.00;;;;;;;;;;684755;28;4266;-76
2024/03/21 01:34:41;;;;;;;7.97;5.00;;;;;;;;;;684514;28;1099;-76
2024/03/21 01:35:01;;;;;;;8.20;5.20;;;;;;;;;;683205;28;1109;-76
2024/03/21 01:35:22;;;;;;;6.73;5.07;;;;;;;;;;686223;28;1119;-78
2024/03/21 01:35:42;;;;;;;8.40;5.47;;;;;;;;;;689222;28;1431;-77
2024/03/21 01:36:02;;;;;;;8.77;5.53;;;;;;;;;;688375;28;1330;-80
2024/03/21 01:36:23;;;;;;;8.97;5.23;;;;;;;;;;685711;28;1027;-76
2024/03/21 01:36:47;;;;;;;7.70;4.83;;;;;;;;;;684284;28;1485;-78
2024/03/21 01:37:08;;;;;;;6.50;4.85;;;;;;;;;;683412;28;4398;-76
2024/03/21 01:37:28;;;;;;;7.57;4.78;;;;;;;;;;686109;28;1313;-77
2024/03/21 01:37:48;;;;;;;7.03;4.70;;;;;;;;;;684708;28;1251;-78
2024/03/21 01:38:09;;;;;;;5.93;4.60;;;;;;;;;;687361;28;1236;-76
2024/03/21 01:38:29;;;;;;;7.40;4.80;;;;;;;;;;684728;28;854;-76
2024/03/21 01:38:49;;;;;;;8.07;5.00;;;;;;;;;;685305;28;1514;-80
2024/03/21 01:39:10;;;;;;;7.53;4.97;;;;;;;;;;687277;28;1216;-79
2024/03/21 01:39:31;;;;;;;7.80;5.10;;;;;;;;;;683519;28;1360;-77
2024/03/21 01:39:52;;;;;;;9.18;4.97;;;;;;;;;;684119;28;1497;-80
2024/03/21 01:40:13;;;;;;;9.02;4.95;;;;;;;;;;685188;28;4266;-77
2024/03/21 01:40:33;;;;;;;6.67;4.70;;;;;;;;;;683558;29;1158;-76
2024/03/21 01:40:56;;;;;;;9.10;4.65;;;;;;;;;;681783;28;1378;-80
2024/03/21 01:41:16;;;;;;;10.73;5.10;;;;;;;;;;688460;28;1193;-76
2024/03/21 01:41:37;;;;;;;8.83;4.87;;;;;;;;;;686686;28;1122;-77
2024/03/21 01:41:57;;;;;;;7.67;4.87;;;;;;;;;;685350;28;1047;-79
2024/03/21 01:42:19;;;;;;;7.68;4.90;;;;;;;;;;684055;28;948;-76
2024/03/21 01:42:39;;;;;;;7.50;4.80;;;;;;;;;;681939;28;1568;-76
2024/03/21 01:42:59;;;;;;;7.38;4.88;;;;;;;;;;685146;28;964;-77
2024/03/21 01:43:21;;;;;;;7.40;4.83;;;;;;;;;;685545;28;4352;-76
2024/03/21 01:43:41;;;;;;;8.15;4.95;;;;;;;;;;685807;28;1362;-76
2024/03/21 01:44:02;;;;;;;6.83;5.00;;;;;;;;;;685739;28;3207;-75
2024/03/21 01:44:23;;;;;;;8.27;5.18;;;;;;;;;;688103;28;1206;-78
2024/03/21 01:44:45;;;;;;;8.93;5.10;;;;;;;;;;689349;28;1303;-76
2024/03/21 01:45:06;;;;;;;8.07;5.60;;;;;;;;;;687205;28;1295;-76
2024/03/21 01:45:27;;;;;;;7.93;5.50;;;;;;;;;;685601;28;1139;-80
2024/03/21 01:46:16;;;;;;;7.28;5.32;;;;;;;;;;688679;28;1140;-77
2024/03/21 01:46:36;;;;;;;8.02;4.97;;;;;;;;;;677246;29;4821;-77
2024/03/21 01:46:56;;;;;;;7.00;5.10;;;;;;;;;;682019;28;1620;-76
2024/03/21 01:47:17;;;;;;;7.38;5.20;;;;;;;;;;683220;29;1193;-77
2024/03/21 01:47:37;;;;;;;7.33;5.07;;;;;;;;;;680933;28;1283;-76
2024/03/21 01:48:02;;;;;;;8.10;4.90;;;;;;;;;;683870;28;1497;-78
2024/03/21 01:48:23;;;;;;;7.75;5.18;;;;;;;;;;684981;28;900;-77
2024/03/21 01:48:44;;;;;;;8.37;5.13;;;;;;;;;;688442;28;1124;-76
2024/03/21 01:49:05;;;;;;;8.35;5.43;;;;;;;;;;689306;28;4293;-76
2024/03/21 01:49:25;;;;;;;8.67;5.33;;;;;;;;;;689200;28;1337;-76
2024/03/21 01:49:45;;;;;;;9.13;5.22;;;;;;;;;;688491;28;1176;-76
2024/03/21 01:50:06;;;;;;;10.43;5.60;;;;;;;;;;687549;28;1465;-76
2024/03/21 01:50:28;;;;;;;10.57;6.18;;;;;;;;;;682631;29;1816;-78
2024/03/21 01:50:48;;;;;;;10.80;6.63;;;;;;;;;;685905;28;1294;-79
2024/03/21 01:51:08;;;;;;;10.07;6.50;;;;;;;;;;684794;28;1609;-76
2024/03/21 01:51:29;;;;;;;9.50;6.50;;;;;;;;;;683255;29;975;-77
2024/03/21 01:51:49;;;;;;;9.45;6.22;;;;;;;;;;679835;29;1262;-81
2024/03/21 01:52:10;;;;;;;9.73;5.93;;;;;;;;;;682348;28;4307;-76
2024/03/21 01:52:30;;;;;;;8.77;5.80;;;;;;;;;;685327;28;1899;-79
2024/03/21 01:52:51;;;;;;;9.77;6.20;;;;;;;;;;684076;28;1277;-78
2024/03/21 01:53:12;;;;;;;9.85;6.50;;;;;;;;;;688013;28;853;-78
2024/03/21 01:53:33;;;;;;;10.05;6.28;;;;;;;;;;686035;28;1186;-77
2024/03/21 01:53:54;;;;;;;10.63;6.50;;;;;;;;;;687316;28;1453;-76
2024/03/21 01:54:16;;;;;;;9.80;6.38;;;;;;;;;;682911;28;1481;-76
2024/03/21 01:54:36;;;;;;;10.48;6.63;;;;;;;;;;685963;28;1758;-81
2024/03/21 01:54:56;;;;;;;11.67;7.67;;;;;;;;;;682284;28;1208;-76
2024/03/21 01:55:17;;;;;;;9.65;6.75;;;;;;;;;;680108;29;4270;-76
2024/03/21 01:55:38;;;;;;;10.27;6.90;;;;;;;;;;681892;29;1342;-76
2024/03/21 01:55:59;;;;;;;11.73;7.15;;;;;;;;;;683548;28;1281;-76
2024/03/21 01:56:19;;;;;;;14.30;7.80;;;;;;;;;;685521;28;952;-76
2024/03/21 01:56:40;;;;;;;12.50;8.33;;;;;;;;;;681149;29;1159;-76
2024/03/21 01:57:00;;;;;;;12.30;8.40;;;;;;;;;;679230;29;1192;-77
2024/03/21 01:57:20;;;;;;;13.27;8.80;;;;;;;;;;684945;28;1542;-77
2024/03/21 01:57:41;;;;;;;14.27;9.00;;;;;;;;;;688695;28;762;-76
2024/03/21 01:58:02;;;;;;;15.63;10.27;;;;;;;;;;684716;28;1365;-76
2024/03/21 01:58:22;;;;;;;17.60;11.00;;;;;;;;;;685265;28;4457;-76
2024/03/21 01:58:42;;;;;;;16.05;10.82;;;;;;;;;;685603;28;1470;-76
2024/03/21 01:59:03;;;;;;;16.87;10.47;;;;;;;;;;684692;28;1184;-79
2024/03/21 01:59:23;;;;;;;16.45;11.07;;;;;;;;;;687404;28;1447;-76
2024/03/21 01:59:44;;;;;;;19.15;11.23;;;;;;;;;;687281;28;1166;-76
2024/03/21 02:00:04;;;;;;;17.47;10.50;;;;;;;;;;685783;28;1129;-76
2024/03/21 02:00:25;;;;;;;16.27;11.32;;;;;;;;;;684747;28;682;-77
2024/03/21 02:00:46;;;;;;;16.00;11.30;;;;;;;;;;681445;28;1153;-76
2024/03/21 02:02:06;;;;;;;13.50;9.68;;;;;;;;;;681863;28;1685;-66
2024/03/21 02:02:26;;;;;;;11.43;8.60;;;;;;;;;;685795;28;1382;-66
2024/03/21 02:02:46;;;;;;;12.90;8.80;;;;;;;;;;684899;28;1144;-67
2024/03/21 02:03:08;;;;;;;13.27;9.20;;;;;;;;;;690101;28;1955;-66
2024/03/21 02:03:29;;;;;;;14.43;9.52;;;;;;;;;;693093;28;1223;-66
2024/03/21 02:03:51;;;;;;;14.83;9.00;;;;;;;;;;691277;28;915;-66
2024/03/21 02:04:12;;;;;;;13.18;8.82;;;;;;;;;;689597;28;4459;-65
2024/03/21 02:04:32;;;;;;;11.75;7.80;;;;;;;;;;688314;28;2095;-66
2024/03/21 02:04:53;;;;;;;9.43;6.70;;;;;;;;;;687660;28;1636;-66
2024/03/21 02:05:13;;;;;;;9.85;6.75;;;;;;;;;;687093;28;900;-66
2024/03/21 02:05:33;;;;;;;9.53;6.83;;;;;;;;;;687913;28;988;-65
2024/03/21 02:05:54;;;;;;;10.47;6.83;;;;;;;;;;686855;28;1941;-67
2024/03/21 02:06:14;;;;;;;13.05;7.60;;;;;;;;;;690120;28;807;-66
2024/03/21 02:06:35;;;;;;;12.73;7.40;;;;;;;;;;690622;28;1025;-66
2024/03/21 02:06:55;;;;;;;10.63;6.78;;;;;;;;;;689603;28;1923;-67
2024/03/21 02:07:18;;;;;;;11.00;6.70;;;;;;;;;;689490;28;4368;-66
2024/03/21 02:07:38;;;;;;;10.35;6.15;;;;;;;;;;690937;28;1041;-67
2024/03/21 02:07:58;;;;;;;8.80;5.70;;;;;;;;;;689473;28;2178;-66
2024/03/21 02:08:20;;;;;;;8.80;5.47;;;;;;;;;;690548;28;983;-66
2024/03/21 02:08:41;;;;;;;9.63;5.65;;;;;;;;;;690286;28;1152;-66
2024/03/21 02:09:02;;;;;;;8.77;5.40;;;;;;;;;;689438;28;1669;-66
2024/03/21 02:09:23;;;;;;;7.93;5.47;;;;;;;;;;690264;28;911;-67
2024/03/21 02:09:49;;;;;;;7.70;5.47;;;;;;;;;;688613;28;1370;-66